sensor_id;sensor_type;location;lat;lon;timestamp;temperature;humidity
10143;DHT22;5112;54.088;13.446;2022-10-31T00:02:03;10.50;99.90
10143;DHT22;5112;54.088;13.446;2022-10-31T00:12:06;10.40;99.90
10143;DHT22;5112;54.088;13.446;2022-10-31T00:22:08;10.40;99.90
10143;DHT22;5112;54.088;13.446;2022-10-31T00:32:11;10.10;99.90
10143;DHT22;5112;54.088;13.446;2022-10-31T00:42:12;10.20;99.90
10143;DHT22;5112;54.088;13.446;2022-10-31T00:52:15;10.10;99.90
10143;DHT22;5112;54.088;13.446;2022-10-31T01:02:17;10.10;99.90
10143;DHT22;5112;54.088;13.446;2022-10-31T01:12:20;9.90;99.90
10143;DHT22;5112;54.088;13.446;2022-10-31T01:22:22;9.70;99.90
10143;DHT22;5112;54.088;13.446;2022-10-31T01:32:26;9.80;99.90
10143;DHT22;5112;54.088;13.446;2022-10-31T01:42:29;9.70;99.90
10143;DHT22;5112;54.088;13.446;2022-10-31T01:52:34;9.70;99.90
10143;DHT22;5112;54.088;13.446;2022-10-31T02:02:38;9.60;99.90
10143;DHT22;5112;54.088;13.446;2022-10-31T02:12:41;9.50;99.90
10143;DHT22;5112;54.088;13.446;2022-10-31T02:23:03;9.40;99.90
10143;DHT22;5112;54.088;13.446;2022-10-31T02:33:19;9.40;99.90
10143;DHT22;5112;54.088;13.446;2022-10-31T02:43:29;9.50;99.90
10143;DHT22;5112;54.088;13.446;2022-10-31T02:53:34;9.40;99.90
10143;DHT22;5112;54.088;13.446;2022-10-31T03:03:45;9.30;99.90
10143;DHT22;5112;54.088;13.446;2022-10-31T03:13:59;9.30;99.90
10143;DHT22;5112;54.088;13.446;2022-10-31T03:24:02;9.20;99.90
10143;DHT22;5112;54.088;13.446;2022-10-31T03:34:07;9.30;99.90
10143;DHT22;5112;54.088;13.446;2022-10-31T03:44:12;9.30;99.90
10143;DHT22;5112;54.088;13.446;2022-10-31T03:54:22;9.40;99.90
10143;DHT22;5112;54.088;13.446;2022-10-31T04:04:26;9.40;99.90
10143;DHT22;5112;54.088;13.446;2022-10-31T04:14:31;9.50;99.90
10143;DHT22;5112;54.088;13.446;2022-10-31T04:24:34;9.50;99.90
10143;DHT22;5112;54.088;13.446;2022-10-31T04:34:37;9.50;99.90
10143;DHT22;5112;54.088;13.446;2022-10-31T04:44:39;9.50;99.90
10143;DHT22;5112;54.088;13.446;2022-10-31T04:54:41;9.50;99.90
10143;DHT22;5112;54.088;13.446;2022-10-31T05:04:43;9.50;99.90
10143;DHT22;5112;54.088;13.446;2022-10-31T05:14:46;9.50;99.90
10143;DHT22;5112;54.088;13.446;2022-10-31T05:24:48;9.50;99.90
10143;DHT22;5112;54.088;13.446;2022-10-31T05:34:51;9.40;99.90
10143;DHT22;5112;54.088;13.446;2022-10-31T05:44:52;9.40;99.90
10143;DHT22;5112;54.088;13.446;2022-10-31T05:54:55;9.40;99.90
10143;DHT22;5112;54.088;13.446;2022-10-31T06:04:57;9.40;99.90
10143;DHT22;5112;54.088;13.446;2022-10-31T06:15:00;9.40;99.90
10143;DHT22;5112;54.088;13.446;2022-10-31T06:25:02;9.60;99.90
10143;DHT22;5112;54.088;13.446;2022-10-31T06:35:05;9.70;99.90
10143;DHT22;5112;54.088;13.446;2022-10-31T06:45:08;9.80;99.90
10143;DHT22;5112;54.088;13.446;2022-10-31T06:55:11;9.90;99.90
10143;DHT22;5112;54.088;13.446;2022-10-31T07:05:12;10.00;99.90
10143;DHT22;5112;54.088;13.446;2022-10-31T07:15:15;10.10;99.90
10143;DHT22;5112;54.088;13.446;2022-10-31T07:25:17;10.30;99.90
10143;DHT22;5112;54.088;13.446;2022-10-31T07:35:22;10.40;99.90
10143;DHT22;5112;54.088;13.446;2022-10-31T07:45:24;10.60;99.90
10143;DHT22;5112;54.088;13.446;2022-10-31T07:55:27;10.80;99.90
10143;DHT22;5112;54.088;13.446;2022-10-31T08:05:29;10.90;99.90
10143;DHT22;5112;54.088;13.446;2022-10-31T08:15:33;11.00;99.90
10143;DHT22;5112;54.088;13.446;2022-10-31T08:25:37;11.00;99.90
10143;DHT22;5112;54.088;13.446;2022-10-31T08:35:41;11.30;99.90
10143;DHT22;5112;54.088;13.446;2022-10-31T08:45:43;11.60;99.90
10143;DHT22;5112;54.088;13.446;2022-10-31T08:55:47;11.80;99.90
10143;DHT22;5112;54.088;13.446;2022-10-31T09:05:49;12.10;99.90
10143;DHT22;5112;54.088;13.446;2022-10-31T09:15:52;12.50;99.90
10143;DHT22;5112;54.088;13.446;2022-10-31T09:25:54;12.50;99.90
10143;DHT22;5112;54.088;13.446;2022-10-31T09:35:59;12.70;99.90
10143;DHT22;5112;54.088;13.446;2022-10-31T09:46:04;12.90;99.90
10143;DHT22;5112;54.088;13.446;2022-10-31T09:56:14;13.10;99.90
10143;DHT22;5112;54.088;13.446;2022-10-31T10:06:21;13.20;99.90
10143;DHT22;5112;54.088;13.446;2022-10-31T10:16:34;13.20;99.90
10143;DHT22;5112;54.088;13.446;2022-10-31T10:26:43;13.40;99.90
10143;DHT22;5112;54.088;13.446;2022-10-31T10:36:52;13.50;99.90
10143;DHT22;5112;54.088;13.446;2022-10-31T10:46:57;13.70;99.90
10143;DHT22;5112;54.088;13.446;2022-10-31T10:57:32;13.90;99.90
10143;DHT22;5112;54.088;13.446;2022-10-31T11:07:39;14.10;99.90
10143;DHT22;5112;54.088;13.446;2022-10-31T11:17:42;14.10;99.90
10143;DHT22;5112;54.088;13.446;2022-10-31T11:27:59;14.30;99.90
10143;DHT22;5112;54.088;13.446;2022-10-31T11:38:04;14.40;99.90
10143;DHT22;5112;54.088;13.446;2022-10-31T11:48:16;14.40;99.90
10143;DHT22;5112;54.088;13.446;2022-10-31T11:58:22;14.50;99.90
10143;DHT22;5112;54.088;13.446;2022-10-31T12:08:28;14.70;99.90
10143;DHT22;5112;54.088;13.446;2022-10-31T12:18:58;14.60;99.90
10143;DHT22;5112;54.088;13.446;2022-10-31T12:29:16;14.60;99.90
10143;DHT22;5112;54.088;13.446;2022-10-31T12:39:30;14.60;99.90
10143;DHT22;5112;54.088;13.446;2022-10-31T12:49:44;14.70;99.90
10143;DHT22;5112;54.088;13.446;2022-10-31T12:59:53;14.60;99.90
10143;DHT22;5112;54.088;13.446;2022-10-31T13:10:01;14.50;99.90
10143;DHT22;5112;54.088;13.446;2022-10-31T13:20:23;14.40;99.90
10143;DHT22;5112;54.088;13.446;2022-10-31T13:30:29;14.40;99.90
10143;DHT22;5112;54.088;13.446;2022-10-31T13:40:40;14.50;99.90
10143;DHT22;5112;54.088;13.446;2022-10-31T13:50:55;14.50;99.90
10143;DHT22;5112;54.088;13.446;2022-10-31T14:01:13;14.50;99.90
10143;DHT22;5112;54.088;13.446;2022-10-31T14:11:22;14.50;99.90
10143;DHT22;5112;54.088;13.446;2022-10-31T14:21:29;14.40;99.90
10143;DHT22;5112;54.088;13.446;2022-10-31T14:31:35;14.40;99.90
10143;DHT22;5112;54.088;13.446;2022-10-31T14:41:58;14.40;99.90
10143;DHT22;5112;54.088;13.446;2022-10-31T14:52:07;14.30;99.90
10143;DHT22;5112;54.088;13.446;2022-10-31T15:02:14;14.20;99.90
10143;DHT22;5112;54.088;13.446;2022-10-31T15:12:23;14.20;99.90
10143;DHT22;5112;54.088;13.446;2022-10-31T15:22:28;14.20;99.90
10143;DHT22;5112;54.088;13.446;2022-10-31T15:32:32;14.10;99.90
10143;DHT22;5112;54.088;13.446;2022-10-31T15:42:39;14.20;99.90
10143;DHT22;5112;54.088;13.446;2022-10-31T15:52:43;14.10;99.90
10143;DHT22;5112;54.088;13.446;2022-10-31T16:02:47;14.10;99.90
10143;DHT22;5112;54.088;13.446;2022-10-31T16:12:49;14.10;99.90
10143;DHT22;5112;54.088;13.446;2022-10-31T16:22:52;14.00;99.90
10143;DHT22;5112;54.088;13.446;2022-10-31T16:32:56;14.00;99.90
10143;DHT22;5112;54.088;13.446;2022-10-31T16:43:00;14.00;99.90
10143;DHT22;5112;54.088;13.446;2022-10-31T16:53:02;14.20;99.90
10143;DHT22;5112;54.088;13.446;2022-10-31T17:03:07;14.00;99.90
10143;DHT22;5112;54.088;13.446;2022-10-31T17:13:13;14.00;99.90
10143;DHT22;5112;54.088;13.446;2022-10-31T17:23:18;14.00;99.90
10143;DHT22;5112;54.088;13.446;2022-10-31T17:33:20;14.00;99.90
10143;DHT22;5112;54.088;13.446;2022-10-31T17:43:23;13.90;99.90
10143;DHT22;5112;54.088;13.446;2022-10-31T17:53:27;13.90;99.90
10143;DHT22;5112;54.088;13.446;2022-10-31T18:03:31;13.90;99.90
10143;DHT22;5112;54.088;13.446;2022-10-31T18:13:32;13.80;99.90
10143;DHT22;5112;54.088;13.446;2022-10-31T18:23:35;13.80;99.90
10143;DHT22;5112;54.088;13.446;2022-10-31T18:33:37;13.70;99.90
10143;DHT22;5112;54.088;13.446;2022-10-31T18:43:40;13.60;99.90
10143;DHT22;5112;54.088;13.446;2022-10-31T18:53:44;13.60;99.90
10143;DHT22;5112;54.088;13.446;2022-10-31T19:03:54;13.60;99.90
10143;DHT22;5112;54.088;13.446;2022-10-31T19:13:56;13.50;99.90
10143;DHT22;5112;54.088;13.446;2022-10-31T19:23:59;13.60;99.90
10143;DHT22;5112;54.088;13.446;2022-10-31T19:34:01;13.50;99.90
10143;DHT22;5112;54.088;13.446;2022-10-31T19:44:04;13.50;99.90
10143;DHT22;5112;54.088;13.446;2022-10-31T19:54:07;13.40;99.90
10143;DHT22;5112;54.088;13.446;2022-10-31T20:04:10;13.30;99.90
10143;DHT22;5112;54.088;13.446;2022-10-31T20:14:14;13.30;99.90
10143;DHT22;5112;54.088;13.446;2022-10-31T20:24:17;13.30;99.90
10143;DHT22;5112;54.088;13.446;2022-10-31T20:34:19;13.30;99.90
10143;DHT22;5112;54.088;13.446;2022-10-31T20:44:22;13.30;99.90
10143;DHT22;5112;54.088;13.446;2022-10-31T20:54:24;13.20;99.90
10143;DHT22;5112;54.088;13.446;2022-10-31T21:04:27;13.20;99.90
10143;DHT22;5112;54.088;13.446;2022-10-31T21:14:28;13.00;99.90
10143;DHT22;5112;54.088;13.446;2022-10-31T21:24:31;13.00;99.90
10143;DHT22;5112;54.088;13.446;2022-10-31T21:34:34;13.00;99.90
10143;DHT22;5112;54.088;13.446;2022-10-31T21:44:37;13.00;99.90
10143;DHT22;5112;54.088;13.446;2022-10-31T21:54:39;13.00;99.90
10143;DHT22;5112;54.088;13.446;2022-10-31T22:04:42;12.90;99.90
10143;DHT22;5112;54.088;13.446;2022-10-31T22:14:44;12.80;99.90
10143;DHT22;5112;54.088;13.446;2022-10-31T22:24:47;12.90;99.90
10143;DHT22;5112;54.088;13.446;2022-10-31T22:34:49;12.80;99.90
10143;DHT22;5112;54.088;13.446;2022-10-31T22:44:52;12.80;99.90
10143;DHT22;5112;54.088;13.446;2022-10-31T22:54:54;12.70;99.90
10143;DHT22;5112;54.088;13.446;2022-10-31T23:04:57;12.60;99.90
10143;DHT22;5112;54.088;13.446;2022-10-31T23:14:58;12.60;99.90
10143;DHT22;5112;54.088;13.446;2022-10-31T23:25:01;12.50;99.90
10143;DHT22;5112;54.088;13.446;2022-10-31T23:35:05;12.40;99.90
10143;DHT22;5112;54.088;13.446;2022-10-31T23:45:09;12.50;99.90
10143;DHT22;5112;54.088;13.446;2022-10-31T23:55:11;12.50;99.90
